createdAt,value
2018-03-20T00:12:32.067Z,0
2018-03-20T00:13:32.049Z,0
2018-03-20T00:14:31.511Z,0
2018-03-20T00:15:32.011Z,0
2018-03-20T00:16:31.999Z,0
2018-03-20T00:17:31.976Z,0
2018-03-20T00:18:31.944Z,0
2018-03-20T00:19:31.428Z,0
2018-03-20T00:20:31.917Z,0
2018-03-20T00:21:31.903Z,0
2018-03-20T00:22:31.888Z,0
2018-03-20T00:23:31.862Z,0
2018-03-20T00:24:31.330Z,0
2018-03-20T00:25:31.569Z,0
2018-03-20T01:28:30.423Z,0
2018-03-20T01:29:30.398Z,0
2018-03-20T01:30:30.632Z,0
2018-03-20T02:10:29.647Z,0
2018-03-20T02:11:29.878Z,0
2018-03-20T02:12:29.851Z,0
2018-03-20T02:13:29.833Z,0
2018-03-20T02:14:29.554Z,0
2018-03-20T02:15:29.805Z,0
2018-03-20T02:16:29.776Z,0
2018-03-20T02:17:29.763Z,0
2018-03-20T02:18:29.743Z,0
2018-03-20T02:19:29.725Z,0
2018-03-20T02:20:29.715Z,0
2018-03-20T02:21:29.688Z,0
2018-03-20T02:22:29.671Z,0
2018-03-20T02:23:29.654Z,0
2018-03-20T02:24:29.622Z,0
2018-03-20T02:25:29.612Z,0
2018-03-20T02:26:29.593Z,0
2018-03-20T02:27:29.578Z,0
2018-03-20T02:28:29.555Z,0
2018-03-20T02:29:29.538Z,0
2018-03-20T02:30:29.263Z,0
2018-03-20T02:31:29.515Z,0
2018-03-20T02:32:29.522Z,0
2018-03-20T02:33:29.482Z,0
2018-03-20T02:34:29.450Z,0
2018-03-20T02:35:29.430Z,0
2018-03-20T02:36:29.417Z,0
2018-03-20T02:49:28.654Z,0
2018-03-20T04:23:27.398Z,0
2018-03-20T04:24:27.378Z,0
2018-03-20T04:25:27.362Z,0
2018-03-20T04:26:27.340Z,0
2018-03-20T04:27:27.343Z,0
2018-03-20T04:28:27.316Z,0
2018-03-20T04:29:27.025Z,0
2018-03-20T04:30:27.272Z,0
2018-03-20T04:31:26.998Z,0
2018-03-20T04:32:27.226Z,0
2018-03-20T04:33:26.951Z,0
2018-03-20T04:34:27.192Z,0
2018-03-20T04:35:27.168Z,0
2018-03-20T04:36:27.151Z,0
2018-03-20T04:37:26.875Z,0
2018-03-20T04:38:26.852Z,0
2018-03-20T04:39:26.834Z,0
2018-03-20T04:40:27.074Z,0
2018-03-20T04:41:27.062Z,0
2018-03-20T04:42:26.784Z,0
2018-03-20T04:43:27.023Z,0
2018-03-20T04:44:26.998Z,0
2018-03-20T04:45:26.714Z,0
2018-03-20T04:46:26.707Z,0
2018-03-20T04:47:26.944Z,0
2018-03-20T04:48:26.672Z,0
2018-03-20T04:49:26.384Z,0
2018-03-20T04:50:26.879Z,0
2018-03-20T04:51:26.357Z,0
2018-03-20T04:52:26.841Z,0
2018-03-20T04:53:26.830Z,0
2018-03-20T04:54:26.807Z,0
2018-03-20T04:55:26.526Z,0
2018-03-20T04:56:26.773Z,0
2018-03-20T04:57:26.774Z,0
2018-03-20T04:58:26.727Z,5
2018-03-20T04:59:26.535Z,5
2018-03-20T05:00:26.716Z,5
2018-03-20T05:01:26.685Z,5
2018-03-20T05:02:26.400Z,10
2018-03-20T05:03:26.663Z,10
2018-03-20T05:04:26.360Z,10
2018-03-20T05:05:26.597Z,10
2018-03-20T05:06:26.639Z,10
2018-03-20T05:07:26.301Z,10
2018-03-20T05:08:26.549Z,15
2018-03-20T05:09:26.533Z,15
2018-03-20T05:10:26.508Z,15
2018-03-20T05:11:26.490Z,15
2018-03-20T05:12:26.472Z,20
2018-03-20T05:13:26.197Z,20
2018-03-20T05:14:26.436Z,20
2018-03-20T05:15:26.418Z,20
2018-03-20T05:16:26.391Z,25
2018-03-20T05:17:26.119Z,25
2018-03-20T05:18:26.353Z,30
2018-03-20T05:19:26.336Z,30
2018-03-20T05:20:26.313Z,35
2018-03-20T05:21:26.307Z,35
2018-03-20T05:22:26.340Z,35
2018-03-20T05:23:26.261Z,40
2018-03-20T05:24:26.248Z,45
2018-03-20T05:25:25.996Z,45
2018-03-20T05:26:26.213Z,50
2018-03-20T05:27:25.940Z,55
2018-03-20T05:28:26.173Z,60
2018-03-20T05:29:26.156Z,65
2018-03-20T05:30:26.145Z,70
2018-03-20T05:31:26.116Z,80
2018-03-20T05:32:26.114Z,85
2018-03-20T05:33:26.079Z,95
2018-03-20T05:34:25.832Z,95
2018-03-20T05:35:26.052Z,105
2018-03-20T05:36:26.024Z,105
2018-03-20T05:37:26.017Z,110
2018-03-20T05:38:25.233Z,100
2018-03-20T05:39:25.969Z,85
2018-03-20T05:40:25.717Z,90
2018-03-20T05:41:25.941Z,100
2018-03-20T05:42:25.673Z,105
2018-03-20T05:43:25.651Z,100
2018-03-20T05:44:25.888Z,95
2018-03-20T05:45:25.618Z,100
2018-03-20T05:46:25.851Z,100
2018-03-20T05:47:25.837Z,95
2018-03-20T05:48:25.832Z,100
2018-03-20T05:49:25.813Z,105
2018-03-20T05:50:25.799Z,110
2018-03-20T05:51:25.778Z,115
2018-03-20T05:52:25.752Z,115
2018-03-20T05:53:25.753Z,115
2018-03-20T05:54:25.736Z,110
2018-03-20T05:55:25.489Z,105
2018-03-20T05:56:25.700Z,105
2018-03-20T05:57:25.684Z,110
2018-03-20T05:58:25.674Z,110
2018-03-20T05:59:25.391Z,115
2018-03-20T06:00:25.384Z,105
2018-03-20T06:01:25.364Z,105
2018-03-20T06:02:25.617Z,115
2018-03-20T06:03:25.586Z,120
2018-03-20T06:04:25.610Z,115
2018-03-20T06:05:25.303Z,105
2018-03-20T06:06:25.637Z,95
2018-03-20T06:07:25.529Z,95
2018-03-20T06:08:25.551Z,100
2018-03-20T06:09:25.496Z,100
2018-03-20T06:10:25.474Z,100
2018-03-20T06:11:25.463Z,105
2018-03-20T06:12:25.495Z,100
2018-03-20T06:13:25.434Z,100
2018-03-20T06:14:25.431Z,95
2018-03-20T06:15:25.417Z,95
2018-03-20T06:16:25.383Z,95
2018-03-20T06:17:25.124Z,95
2018-03-20T06:18:25.356Z,95
2018-03-20T06:19:25.338Z,100
2018-03-20T06:20:25.353Z,105
2018-03-20T06:21:25.322Z,105
2018-03-20T06:22:25.302Z,105
2018-03-20T06:23:25.280Z,105
2018-03-20T06:24:25.268Z,100
2018-03-20T06:25:25.253Z,95
2018-03-20T06:26:25.231Z,90
2018-03-20T06:27:24.960Z,95
2018-03-20T06:28:25.387Z,95
2018-03-20T06:29:25.192Z,95
2018-03-20T06:30:25.178Z,95
2018-03-20T06:31:24.905Z,100
2018-03-20T06:32:24.897Z,110
2018-03-20T06:33:25.125Z,110
2018-03-20T06:34:25.116Z,115
2018-03-20T06:35:25.116Z,120
2018-03-20T06:36:24.826Z,125
2018-03-20T06:37:24.826Z,135
2018-03-20T06:38:25.050Z,150
2018-03-20T06:39:24.790Z,155
2018-03-20T06:40:25.017Z,165
2018-03-20T06:41:25.019Z,165
2018-03-20T06:42:24.730Z,175
2018-03-20T06:43:24.984Z,185
2018-03-20T06:44:24.989Z,200
2018-03-20T06:45:24.690Z,210
2018-03-20T06:46:24.675Z,220
2018-03-20T06:47:24.916Z,220
2018-03-20T06:48:24.895Z,215
2018-03-20T06:49:24.888Z,210
2018-03-20T06:50:24.613Z,210
2018-03-20T06:51:24.859Z,210
2018-03-20T06:52:24.586Z,220
2018-03-20T06:53:24.319Z,235
2018-03-20T06:54:24.906Z,255
2018-03-20T06:55:24.803Z,285
2018-03-20T06:56:24.541Z,315
2018-03-20T06:57:24.513Z,330
2018-03-20T06:58:24.268Z,350
2018-03-20T06:59:24.515Z,365
2018-03-20T07:00:24.471Z,385
2018-03-20T07:01:24.467Z,405
2018-03-20T07:02:24.441Z,430
2018-03-20T07:03:24.794Z,445
2018-03-20T07:04:24.428Z,440
2018-03-20T07:05:24.406Z,440
2018-03-20T07:06:24.788Z,455
2018-03-20T07:07:24.128Z,430
2018-03-20T07:08:24.377Z,390
2018-03-20T07:09:24.625Z,370
2018-03-20T07:10:24.610Z,360
2018-03-20T07:11:24.079Z,380
2018-03-20T07:12:24.582Z,405
2018-03-20T07:13:24.568Z,420
2018-03-20T07:14:24.550Z,430
2018-03-20T07:15:24.535Z,425
2018-03-20T07:16:24.543Z,415
2018-03-20T07:17:24.001Z,420
2018-03-20T07:18:24.503Z,440
2018-03-20T07:20:24.492Z,440
2018-03-20T07:21:24.492Z,440
2018-03-20T07:22:23.949Z,440
2018-03-20T07:23:24.196Z,435
2018-03-20T07:24:24.433Z,440
2018-03-20T07:25:23.914Z,430
2018-03-20T07:26:24.419Z,430
2018-03-20T07:27:24.409Z,430
2018-03-20T07:28:24.385Z,440
2018-03-20T07:29:24.390Z,425
2018-03-20T07:30:24.113Z,430
2018-03-20T07:31:24.387Z,440
2018-03-20T07:32:24.394Z,560
2018-03-20T07:33:24.342Z,480
2018-03-20T07:34:24.394Z,490
2018-03-20T07:35:24.331Z,495
2018-03-20T07:36:24.310Z,440
2018-03-20T07:37:24.312Z,390
2018-03-20T07:38:24.299Z,395
2018-03-20T07:39:24.280Z,415
2018-03-20T07:40:24.577Z,380
2018-03-20T07:41:24.269Z,415
2018-03-20T07:42:23.743Z,405
2018-03-20T07:43:23.991Z,415
2018-03-20T07:44:23.985Z,460
2018-03-20T07:45:24.278Z,490
2018-03-20T07:46:23.707Z,490
2018-03-20T07:47:24.228Z,480
2018-03-20T07:48:24.221Z,490
2018-03-20T07:49:24.231Z,490
2018-03-20T07:50:24.184Z,470
2018-03-20T07:51:24.185Z,460
2018-03-20T07:52:24.183Z,450
2018-03-20T07:53:23.742Z,450
2018-03-20T07:54:24.166Z,445
2018-03-20T07:55:23.888Z,450
2018-03-20T07:56:24.196Z,470
2018-03-20T07:57:23.945Z,500
2018-03-20T07:58:24.342Z,510
2018-03-20T07:59:23.853Z,490
2018-03-20T08:00:23.622Z,460
2018-03-20T08:01:23.850Z,440
2018-03-20T08:02:24.085Z,410
2018-03-20T08:03:24.072Z,390
2018-03-20T08:04:24.054Z,375
2018-03-20T08:05:24.075Z,370
2018-03-20T08:06:24.057Z,360
2018-03-20T08:07:24.231Z,355
2018-03-20T08:08:24.032Z,355
2018-03-20T08:09:24.026Z,360
2018-03-20T08:10:23.780Z,370
2018-03-20T08:11:24.066Z,370
2018-03-20T08:12:24.009Z,365
2018-03-20T08:13:23.775Z,360
2018-03-20T08:14:23.725Z,350
2018-03-20T08:15:23.986Z,340
2018-03-20T08:16:23.697Z,340
2018-03-20T08:17:23.951Z,340
2018-03-20T08:18:23.687Z,335
2018-03-20T08:19:23.972Z,335
2018-03-20T08:20:23.670Z,340
2018-03-20T08:21:23.907Z,340
2018-03-20T08:22:23.898Z,340
2018-03-20T08:23:23.915Z,340
2018-03-20T08:24:23.904Z,345
2018-03-20T08:25:23.611Z,350
2018-03-20T08:26:23.883Z,355
2018-03-20T08:27:23.594Z,355
2018-03-20T08:28:23.842Z,360
2018-03-20T08:29:24.018Z,365
2018-03-20T08:30:23.828Z,370
2018-03-20T08:31:23.555Z,375
2018-03-20T08:32:23.570Z,380
2018-03-20T08:33:23.548Z,385
2018-03-20T08:34:23.782Z,395
2018-03-20T08:35:23.552Z,410
2018-03-20T08:36:22.999Z,405
2018-03-20T08:37:23.756Z,405
2018-03-20T08:38:23.805Z,405
2018-03-20T08:39:23.742Z,405
2018-03-20T08:40:23.728Z,400
2018-03-20T08:41:22.970Z,405
2018-03-20T08:42:23.757Z,405
2018-03-20T08:43:23.991Z,410
2018-03-20T08:44:23.903Z,410
2018-03-20T08:45:23.727Z,405
2018-03-20T08:46:23.417Z,400
2018-03-20T08:47:23.672Z,385
2018-03-20T08:48:23.659Z,375
2018-03-20T08:49:23.681Z,370
2018-03-20T08:50:23.136Z,365
2018-03-20T08:51:23.717Z,360
2018-03-20T08:52:23.650Z,360
2018-03-20T08:53:23.120Z,355
2018-03-20T08:54:23.388Z,350
2018-03-20T08:55:23.592Z,350
2018-03-20T08:56:23.344Z,350
2018-03-20T08:57:23.813Z,355
2018-03-20T08:58:23.626Z,355
2018-03-20T08:59:23.676Z,355
2018-03-20T09:00:23.576Z,355
2018-03-20T09:01:23.362Z,360
2018-03-20T09:02:23.643Z,375
2018-03-20T09:03:23.506Z,385
2018-03-20T09:04:23.513Z,400
2018-03-20T09:05:23.518Z,415
2018-03-20T09:06:23.582Z,425
2018-03-20T09:07:23.524Z,440
2018-03-20T09:08:23.479Z,455
2018-03-20T09:09:23.462Z,465
2018-03-20T09:10:23.217Z,475
2018-03-20T09:11:23.443Z,490
2018-03-20T09:12:23.539Z,490
2018-03-20T09:13:23.413Z,495
2018-03-20T09:14:23.204Z,485
2018-03-20T09:15:23.164Z,475
2018-03-20T09:16:23.162Z,460
2018-03-20T09:17:23.394Z,455
2018-03-20T09:18:23.117Z,460
2018-03-20T09:19:23.333Z,480
2018-03-20T09:20:23.371Z,500
2018-03-20T09:21:23.085Z,515
2018-03-20T09:22:23.327Z,535
2018-03-20T09:23:23.342Z,540
2018-03-20T09:24:23.118Z,520
2018-03-20T09:25:23.126Z,500
2018-03-20T09:26:22.802Z,490
2018-03-20T09:27:23.357Z,480
2018-03-20T09:28:23.290Z,475
2018-03-20T09:29:22.789Z,460
2018-03-20T09:30:23.252Z,445
2018-03-20T09:31:22.996Z,430
2018-03-20T09:32:23.336Z,430
2018-03-20T09:33:22.971Z,430
2018-03-20T09:34:23.285Z,425
2018-03-20T09:35:23.224Z,405
2018-03-20T09:36:23.205Z,425
2018-03-20T09:37:22.971Z,440
2018-03-20T09:38:23.216Z,455
2018-03-20T09:39:22.942Z,475
2018-03-20T09:40:23.032Z,490
2018-03-20T09:41:22.930Z,485
2018-03-20T09:42:23.228Z,495
2018-03-20T09:43:23.445Z,530
2018-03-20T09:44:23.142Z,530
2018-03-20T09:45:23.375Z,525
2018-03-20T09:46:22.872Z,525
2018-03-20T09:47:22.870Z,515
2018-03-20T09:48:22.605Z,515
2018-03-20T09:49:22.836Z,525
2018-03-20T09:50:22.837Z,545
2018-03-20T09:51:23.116Z,570
2018-03-20T09:52:22.814Z,575
2018-03-20T09:53:22.565Z,575
2018-03-20T09:54:22.565Z,565
2018-03-20T09:55:22.594Z,565
2018-03-20T09:56:22.816Z,570
2018-03-20T09:57:22.789Z,570
2018-03-20T09:58:22.557Z,545
2018-03-20T09:59:22.510Z,505
2018-03-20T10:00:22.849Z,445
2018-03-20T10:01:22.759Z,375
2018-03-20T10:02:23.016Z,335
2018-03-20T10:03:23.002Z,310
2018-03-20T10:04:22.745Z,300
2018-03-20T10:05:22.718Z,280
2018-03-20T10:06:22.694Z,260
2018-03-20T10:07:22.707Z,245
2018-03-20T10:08:22.690Z,225
2018-03-20T10:09:22.687Z,215
2018-03-20T10:10:22.419Z,205
2018-03-20T10:11:22.957Z,205
2018-03-20T10:12:22.898Z,210
2018-03-20T10:13:22.695Z,215
2018-03-20T10:14:22.650Z,230
2018-03-20T10:15:22.638Z,245
2018-03-20T10:16:22.637Z,270
2018-03-20T10:17:22.903Z,295
2018-03-20T10:18:22.873Z,335
2018-03-20T10:19:22.863Z,375
2018-03-20T10:20:22.931Z,420
2018-03-20T10:21:22.824Z,460
2018-03-20T10:22:22.815Z,510
2018-03-20T10:23:22.830Z,540
2018-03-20T10:24:22.801Z,550
2018-03-20T10:25:22.828Z,580
2018-03-20T10:26:22.353Z,585
2018-03-20T10:27:22.533Z,545
2018-03-20T10:28:22.772Z,520
2018-03-20T10:29:22.508Z,505
2018-03-20T10:30:22.263Z,510
2018-03-20T10:31:22.730Z,535
2018-03-20T10:32:22.757Z,520
2018-03-20T10:33:22.527Z,520
2018-03-20T10:34:22.463Z,495
2018-03-20T10:35:22.210Z,470
2018-03-20T10:36:22.485Z,465
2018-03-20T10:37:22.685Z,490
2018-03-20T10:38:22.275Z,535
2018-03-20T10:39:22.693Z,580
2018-03-20T10:40:22.647Z,620
2018-03-20T10:41:22.658Z,660
2018-03-20T10:42:22.650Z,675
2018-03-20T10:43:22.741Z,690
2018-03-20T10:44:22.632Z,740
2018-03-20T10:45:22.619Z,805
2018-03-20T10:46:22.595Z,780
2018-03-20T10:47:22.609Z,740
2018-03-20T10:48:22.612Z,720
2018-03-20T10:49:22.598Z,690
2018-03-20T10:50:22.565Z,655
2018-03-20T10:51:22.311Z,640
2018-03-20T10:52:23.012Z,630
2018-03-20T10:53:22.611Z,595
2018-03-20T10:54:22.268Z,580
2018-03-20T10:55:22.303Z,570
2018-03-20T10:56:22.540Z,575
2018-03-20T10:57:22.536Z,565
2018-03-20T10:58:22.513Z,575
2018-03-20T10:59:22.495Z,585
2018-03-20T11:00:22.503Z,545
2018-03-20T11:01:22.526Z,500
2018-03-20T11:02:21.978Z,470
2018-03-20T11:03:22.202Z,435
2018-03-20T11:04:22.471Z,375
2018-03-20T11:05:22.470Z,300
2018-03-20T11:06:22.183Z,265
2018-03-20T11:07:22.464Z,255
2018-03-20T11:08:22.181Z,280
2018-03-20T11:09:22.213Z,310
2018-03-20T11:10:22.437Z,305
2018-03-20T11:11:22.428Z,280
2018-03-20T11:12:22.165Z,260
2018-03-20T11:13:22.709Z,255
2018-03-20T11:14:22.127Z,245
2018-03-20T11:15:22.103Z,245
2018-03-20T11:16:21.903Z,250
2018-03-20T11:17:22.348Z,250
2018-03-20T11:18:22.341Z,245
2018-03-20T11:19:22.377Z,225
2018-03-20T11:20:22.360Z,215
2018-03-20T11:21:22.082Z,230
2018-03-20T11:22:22.302Z,275
2018-03-20T11:23:22.331Z,305
2018-03-20T11:24:22.280Z,285
2018-03-20T11:25:22.298Z,280
2018-03-20T11:26:22.024Z,300
2018-03-20T11:27:22.031Z,310
2018-03-20T11:28:22.252Z,280
2018-03-20T11:29:22.279Z,260
2018-03-20T11:30:21.989Z,225
2018-03-20T11:31:22.028Z,200
2018-03-20T11:32:21.958Z,175
2018-03-20T11:33:21.693Z,160
2018-03-20T11:34:21.939Z,155
2018-03-20T11:35:22.224Z,145
2018-03-20T11:36:22.174Z,145
2018-03-20T11:37:21.907Z,155
2018-03-20T11:38:22.143Z,165
2018-03-20T11:39:21.903Z,180
2018-03-20T11:40:22.126Z,195
2018-03-20T11:41:22.121Z,195
2018-03-20T11:42:21.859Z,185
2018-03-20T11:43:22.105Z,170
2018-03-20T11:44:22.113Z,150
2018-03-20T11:45:22.156Z,140
2018-03-20T11:46:21.804Z,135
2018-03-20T11:47:21.855Z,135
2018-03-20T11:48:22.039Z,140
2018-03-20T11:49:21.796Z,125
2018-03-20T11:50:22.031Z,130
2018-03-20T11:51:21.754Z,135
2018-03-20T11:52:21.997Z,140
2018-03-20T11:53:21.741Z,140
2018-03-20T11:54:22.001Z,130
2018-03-20T11:55:21.959Z,110
2018-03-20T11:56:21.955Z,100
2018-03-20T11:57:21.965Z,105
2018-03-20T11:58:21.660Z,150
2018-03-20T11:59:21.653Z,175
2018-03-20T12:00:21.910Z,180
2018-03-20T12:01:21.896Z,160
2018-03-20T12:02:21.998Z,145
2018-03-20T12:03:21.601Z,120
2018-03-20T12:04:21.611Z,115
2018-03-20T12:05:21.856Z,135
2018-03-20T12:06:21.832Z,135
2018-03-20T12:07:21.564Z,155
2018-03-20T12:08:21.794Z,160
2018-03-20T12:09:21.790Z,165
2018-03-20T12:10:21.777Z,160
2018-03-20T12:11:21.760Z,160
2018-03-20T12:12:21.513Z,160
2018-03-20T12:13:21.491Z,165
2018-03-20T12:14:21.222Z,150
2018-03-20T12:15:21.714Z,145
2018-03-20T12:16:21.443Z,145
2018-03-20T12:17:21.467Z,155
2018-03-20T12:18:21.444Z,155
2018-03-20T12:19:21.687Z,185
2018-03-20T12:20:21.648Z,180
2018-03-20T12:21:21.644Z,175
2018-03-20T12:22:21.617Z,165
2018-03-20T12:23:21.342Z,165
2018-03-20T12:24:21.601Z,160
2018-03-20T12:25:22.051Z,165
2018-03-20T12:26:21.581Z,185
2018-03-20T12:27:21.569Z,165
2018-03-20T12:28:21.290Z,150
2018-03-20T12:29:21.548Z,160
2018-03-20T12:30:21.274Z,165
2018-03-20T12:31:21.505Z,165
2018-03-20T12:32:21.490Z,160
2018-03-20T12:33:21.021Z,140
2018-03-20T12:34:21.512Z,140
2018-03-20T12:35:21.457Z,190
2018-03-20T12:36:20.939Z,175
2018-03-20T12:37:21.459Z,155
2018-03-20T12:38:21.152Z,175
2018-03-20T12:39:21.835Z,180
2018-03-20T12:40:20.876Z,210
2018-03-20T12:41:21.386Z,225
2018-03-20T12:42:21.811Z,235
2018-03-20T12:43:21.382Z,230
2018-03-20T12:44:21.356Z,250
2018-03-20T12:45:21.330Z,245
2018-03-20T12:46:20.854Z,250
2018-03-20T12:47:21.097Z,240
2018-03-20T12:48:21.318Z,220
2018-03-20T12:49:20.815Z,225
2018-03-20T12:50:21.331Z,240
2018-03-20T12:51:21.008Z,235
2018-03-20T12:52:21.264Z,265
2018-03-20T12:53:20.703Z,265
2018-03-20T12:54:20.956Z,250
2018-03-20T12:55:20.968Z,280
2018-03-20T12:56:21.632Z,305
2018-03-20T12:57:20.963Z,345
2018-03-20T12:58:20.933Z,325
2018-03-20T12:59:20.705Z,270
2018-03-20T13:00:20.871Z,240
2018-03-20T13:01:20.863Z,205
2018-03-20T13:02:20.583Z,190
2018-03-20T13:03:20.838Z,190
2018-03-20T13:04:20.839Z,190
2018-03-20T13:05:20.820Z,205
2018-03-20T13:06:21.055Z,230
2018-03-20T13:07:21.069Z,240
2018-03-20T13:08:21.060Z,255
2018-03-20T13:09:20.764Z,255
2018-03-20T13:10:20.750Z,250
2018-03-20T13:11:20.723Z,245
2018-03-20T13:12:20.996Z,290
2018-03-20T13:13:21.062Z,295
2018-03-20T13:14:20.694Z,260
2018-03-20T13:15:20.933Z,300
2018-03-20T13:16:20.938Z,345
2018-03-20T13:17:20.657Z,370
2018-03-20T13:18:20.697Z,400
2018-03-20T13:19:21.119Z,395
2018-03-20T13:20:20.619Z,400
2018-03-20T13:21:20.852Z,405
2018-03-20T13:22:20.845Z,405
2018-03-20T13:23:21.403Z,390
2018-03-20T13:24:20.828Z,400
2018-03-20T13:25:20.838Z,415
2018-03-20T13:26:20.787Z,425
2018-03-20T13:27:20.821Z,430
2018-03-20T13:28:21.216Z,430
2018-03-20T13:29:20.813Z,420
2018-03-20T13:30:20.784Z,415
2018-03-20T13:31:20.486Z,405
2018-03-20T13:32:20.762Z,400
2018-03-20T13:33:20.721Z,395
2018-03-20T13:34:21.087Z,400
2018-03-20T13:35:20.694Z,405
2018-03-20T13:36:20.709Z,405
2018-03-20T13:37:20.719Z,410
2018-03-20T13:38:20.459Z,410
2018-03-20T13:39:20.440Z,410
2018-03-20T13:40:20.177Z,390
2018-03-20T13:41:20.395Z,405
2018-03-20T13:42:20.606Z,410
2018-03-20T13:43:20.342Z,405
2018-03-20T13:44:20.602Z,415
2018-03-20T13:45:20.575Z,410
2018-03-20T13:46:20.563Z,400
2018-03-20T13:47:20.372Z,400
2018-03-20T13:48:20.603Z,400
2018-03-20T13:49:20.387Z,405
2018-03-20T13:50:20.313Z,405
2018-03-20T13:51:20.614Z,405
2018-03-20T13:52:20.075Z,405
2018-03-20T13:53:20.816Z,365
2018-03-20T13:54:19.738Z,335
2018-03-20T13:55:20.260Z,300
2018-03-20T13:56:20.517Z,290
2018-03-20T13:57:20.294Z,330
2018-03-20T13:58:20.274Z,350
2018-03-20T13:59:20.192Z,345
2018-03-20T14:00:20.161Z,280
2018-03-20T14:01:20.680Z,340
2018-03-20T14:02:20.460Z,305
2018-03-20T14:03:20.500Z,335
2018-03-20T14:04:20.246Z,255
2018-03-20T14:05:20.434Z,250
2018-03-20T14:06:20.227Z,245
2018-03-20T14:07:20.359Z,285
2018-03-20T14:08:20.122Z,255
2018-03-20T14:09:20.515Z,225
2018-03-20T14:10:20.102Z,205
2018-03-20T14:11:20.342Z,205
2018-03-20T14:12:20.340Z,255
2018-03-20T14:13:20.040Z,215
2018-03-20T14:14:20.341Z,165
2018-03-20T14:15:20.051Z,165
2018-03-20T14:16:20.283Z,205
2018-03-20T14:17:20.246Z,220
2018-03-20T14:18:20.275Z,235
2018-03-20T14:19:19.977Z,280
2018-03-20T14:20:20.236Z,280
2018-03-20T14:21:20.259Z,225
2018-03-20T14:22:20.640Z,165
2018-03-20T14:23:20.322Z,150
2018-03-20T14:24:20.483Z,140
2018-03-20T14:25:19.940Z,135
2018-03-20T14:26:20.175Z,120
2018-03-20T14:27:20.141Z,150
2018-03-20T14:28:20.160Z,130
2018-03-20T14:29:19.878Z,100
2018-03-20T14:30:20.100Z,100
2018-03-20T14:31:20.209Z,90
2018-03-20T14:32:19.569Z,95
2018-03-20T14:33:19.785Z,90
2018-03-20T14:34:19.790Z,105
2018-03-20T14:35:19.776Z,125
2018-03-20T14:36:19.754Z,140
2018-03-20T14:37:19.241Z,140
2018-03-20T14:38:19.764Z,150
2018-03-20T14:39:20.024Z,130
2018-03-20T14:40:19.778Z,135
2018-03-20T14:41:20.012Z,195
2018-03-20T14:42:19.724Z,250
2018-03-20T14:43:19.199Z,220
2018-03-20T14:44:19.994Z,160
2018-03-20T14:45:19.671Z,190
2018-03-20T14:46:19.952Z,145
2018-03-20T14:47:19.700Z,145
2018-03-20T14:48:19.896Z,185
2018-03-20T14:49:20.073Z,145
2018-03-20T14:50:19.900Z,145
2018-03-20T14:51:19.602Z,160
2018-03-20T14:52:19.355Z,195
2018-03-20T14:53:19.926Z,155
2018-03-20T14:54:19.592Z,145
2018-03-20T14:55:19.557Z,120
2018-03-20T14:56:20.075Z,120
2018-03-20T14:57:18.983Z,125
2018-03-20T14:58:19.546Z,160
2018-03-20T14:59:19.531Z,130
2018-03-20T15:00:19.257Z,120
2018-03-20T15:01:19.719Z,135
2018-03-20T15:02:19.272Z,165
2018-03-20T15:03:19.779Z,155
2018-03-20T15:04:19.772Z,190
2018-03-20T15:05:19.166Z,185
2018-03-20T15:06:19.697Z,175
2018-03-20T15:07:19.777Z,170
2018-03-20T15:08:19.700Z,150
2018-03-20T15:09:19.607Z,135
2018-03-20T15:10:19.624Z,115
2018-03-20T15:11:19.332Z,110
2018-03-20T15:12:19.065Z,110
2018-03-20T15:13:19.600Z,110
2018-03-20T15:14:19.600Z,120
2018-03-20T15:15:19.039Z,120
2018-03-20T15:16:19.343Z,145
2018-03-20T15:17:19.010Z,115
2018-03-20T15:18:19.582Z,125
2018-03-20T15:19:18.961Z,140
2018-03-20T15:20:19.224Z,135
2018-03-20T15:21:19.462Z,130
2018-03-20T15:22:18.715Z,125
2018-03-20T15:23:18.928Z,120
2018-03-20T15:24:18.653Z,100
2018-03-20T15:25:19.166Z,90
2018-03-20T15:26:19.414Z,80
2018-03-20T15:27:19.660Z,90
2018-03-20T15:28:18.874Z,100
2018-03-20T15:29:19.349Z,95
2018-03-20T15:30:19.105Z,105
2018-03-20T15:31:18.853Z,110
2018-03-20T15:32:19.339Z,115
2018-03-20T15:33:19.092Z,110
2018-03-20T15:34:19.041Z,105
2018-03-20T15:35:19.024Z,115
2018-03-20T15:36:19.097Z,105
2018-03-20T15:37:18.997Z,90
2018-03-20T15:38:19.303Z,105
2018-03-20T15:39:19.238Z,110
2018-03-20T15:40:19.226Z,115
2018-03-20T15:41:18.963Z,115
2018-03-20T15:42:18.931Z,105
2018-03-20T15:43:18.946Z,95
2018-03-20T15:44:18.951Z,90
2018-03-20T15:45:19.196Z,100
2018-03-20T15:46:18.898Z,100
2018-03-20T15:47:19.128Z,100
2018-03-20T15:48:18.861Z,75
2018-03-20T15:49:19.205Z,65
2018-03-20T15:50:18.842Z,70
2018-03-20T15:51:19.083Z,85
2018-03-20T15:52:18.807Z,85
2018-03-20T15:53:18.788Z,60
2018-03-20T15:54:18.775Z,55
2018-03-20T15:55:18.780Z,45
2018-03-20T15:56:18.767Z,40
2018-03-20T15:57:19.015Z,40
2018-03-20T15:58:19.050Z,40
2018-03-20T15:59:18.227Z,45
2018-03-20T16:00:18.972Z,45
2018-03-20T16:01:18.957Z,35
2018-03-20T16:02:18.700Z,30
2018-03-20T16:03:18.686Z,25
2018-03-20T16:04:18.136Z,30
2018-03-20T16:05:18.648Z,35
2018-03-20T16:06:18.632Z,35
2018-03-20T16:07:18.882Z,35
2018-03-20T16:08:18.349Z,30
2018-03-20T16:09:18.179Z,30
2018-03-20T16:10:18.331Z,30
2018-03-20T16:11:18.337Z,30
2018-03-20T16:12:18.819Z,40
2018-03-20T16:13:18.281Z,45
2018-03-20T16:14:18.532Z,50
2018-03-20T16:15:18.774Z,55
2018-03-20T16:16:18.501Z,60
2018-03-20T16:17:18.732Z,70
2018-03-20T16:18:18.766Z,70
2018-03-20T16:19:18.493Z,85
2018-03-20T16:20:18.706Z,90
2018-03-20T16:21:18.689Z,95
2018-03-20T16:22:18.688Z,105
2018-03-20T16:23:18.408Z,110
2018-03-20T16:24:18.397Z,110
2018-03-20T16:25:18.430Z,105
2018-03-20T16:26:18.639Z,110
2018-03-20T16:27:18.624Z,105
2018-03-20T16:28:18.609Z,95
2018-03-20T16:29:18.575Z,85
2018-03-20T16:30:18.599Z,85
2018-03-20T16:31:18.310Z,80
2018-03-20T16:32:18.535Z,75
2018-03-20T16:33:18.315Z,70
2018-03-20T16:34:18.376Z,70
2018-03-20T16:35:18.511Z,70
2018-03-20T16:36:18.036Z,70
2018-03-20T16:37:18.549Z,65
2018-03-20T16:38:18.215Z,65
2018-03-20T16:39:18.188Z,65
2018-03-20T16:40:18.181Z,65
2018-03-20T16:41:18.180Z,65
2018-03-20T16:42:18.156Z,65
2018-03-20T16:43:18.402Z,65
2018-03-20T16:44:18.186Z,65
2018-03-20T16:45:18.386Z,65
2018-03-20T16:46:18.372Z,60
2018-03-20T16:47:17.838Z,55
2018-03-20T16:48:18.369Z,55
2018-03-20T16:49:18.059Z,50
2018-03-20T16:50:17.775Z,50
2018-03-20T16:51:18.054Z,45
2018-03-20T16:52:18.014Z,45
2018-03-20T16:53:18.261Z,45
2018-03-20T16:54:18.263Z,45
2018-03-20T16:55:18.217Z,40
2018-03-20T16:56:18.209Z,40
2018-03-20T16:57:17.944Z,40
2018-03-20T16:58:17.927Z,35
2018-03-20T16:59:18.260Z,35
2018-03-20T17:00:17.889Z,35
2018-03-20T17:01:18.142Z,30
2018-03-20T17:02:17.564Z,30
2018-03-20T17:03:18.132Z,30
2018-03-20T17:04:17.852Z,25
2018-03-20T17:05:17.588Z,25
2018-03-20T17:06:17.873Z,25
2018-03-20T17:07:17.535Z,20
2018-03-20T17:08:17.795Z,20
2018-03-20T17:09:17.251Z,20
2018-03-20T17:10:17.753Z,20
2018-03-20T17:11:18.011Z,15
2018-03-20T17:12:17.483Z,15
2018-03-20T17:13:17.970Z,15
2018-03-20T17:14:17.726Z,15
2018-03-20T17:15:17.686Z,10
2018-03-20T17:16:17.990Z,10
2018-03-20T17:17:17.666Z,10
2018-03-20T17:18:17.973Z,10
2018-03-20T17:19:17.627Z,10
2018-03-20T17:20:17.625Z,5
2018-03-20T17:21:17.075Z,5
2018-03-20T17:22:17.354Z,5
2018-03-20T17:23:17.569Z,5
2018-03-20T17:24:17.304Z,5
2018-03-20T17:25:17.293Z,5
2018-03-20T17:26:17.029Z,5
2018-03-20T17:27:17.756Z,0
2018-03-20T17:28:17.516Z,0
2018-03-20T17:29:17.474Z,0
2018-03-20T17:30:17.746Z,0
2018-03-20T17:31:17.787Z,0
2018-03-20T17:32:17.444Z,0
2018-03-20T17:33:17.662Z,0
2018-03-20T17:34:17.397Z,0
2018-03-20T17:35:17.140Z,0
2018-03-20T17:36:17.639Z,0
2018-03-20T17:37:17.607Z,0